sensor_id;sensor_type;location;lat;lon;timestamp;P1;durP1;ratioP1;P2;durP2;ratioP2
12435;SDS011;6282;51.440;6.938;2023-05-06T00:00:26;25.83;;;13.95;;
12435;SDS011;6282;51.440;6.938;2023-05-06T00:02:53;24.50;;;14.23;;
12435;SDS011;6282;51.440;6.938;2023-05-06T00:05:21;21.77;;;13.73;;
12435;SDS011;6282;51.440;6.938;2023-05-06T00:07:48;24.30;;;13.88;;
12435;SDS011;6282;51.440;6.938;2023-05-06T00:10:15;22.55;;;13.45;;
12435;SDS011;6282;51.440;6.938;2023-05-06T00:12:42;24.35;;;14.38;;
12435;SDS011;6282;51.440;6.938;2023-05-06T00:15:09;25.75;;;14.90;;
12435;SDS011;6282;51.440;6.938;2023-05-06T00:17:36;24.30;;;13.57;;
12435;SDS011;6282;51.440;6.938;2023-05-06T00:20:03;24.20;;;13.85;;
12435;SDS011;6282;51.440;6.938;2023-05-06T00:22:33;21.58;;;12.68;;
12435;SDS011;6282;51.440;6.938;2023-05-06T00:24:59;21.70;;;12.20;;
12435;SDS011;6282;51.440;6.938;2023-05-06T00:27:27;18.55;;;11.73;;
12435;SDS011;6282;51.440;6.938;2023-05-06T00:29:54;19.83;;;11.63;;
12435;SDS011;6282;51.440;6.938;2023-05-06T00:32:21;22.55;;;12.50;;
12435;SDS011;6282;51.440;6.938;2023-05-06T00:34:48;19.13;;;11.25;;
12435;SDS011;6282;51.440;6.938;2023-05-06T00:37:15;17.10;;;11.35;;
12435;SDS011;6282;51.440;6.938;2023-05-06T00:39:44;16.15;;;10.27;;
12435;SDS011;6282;51.440;6.938;2023-05-06T00:42:10;17.48;;;10.70;;
12435;SDS011;6282;51.440;6.938;2023-05-06T00:44:37;16.85;;;10.02;;
12435;SDS011;6282;51.440;6.938;2023-05-06T00:47:05;15.18;;;9.82;;
12435;SDS011;6282;51.440;6.938;2023-05-06T00:49:33;14.10;;;9.60;;
12435;SDS011;6282;51.440;6.938;2023-05-06T00:52:00;15.60;;;10.25;;
12435;SDS011;6282;51.440;6.938;2023-05-06T00:54:27;16.05;;;10.05;;
12435;SDS011;6282;51.440;6.938;2023-05-06T00:56:55;20.98;;;11.07;;
12435;SDS011;6282;51.440;6.938;2023-05-06T00:59:22;15.90;;;9.93;;
12435;SDS011;6282;51.440;6.938;2023-05-06T01:01:49;15.07;;;9.75;;
12435;SDS011;6282;51.440;6.938;2023-05-06T01:04:16;16.33;;;10.13;;
12435;SDS011;6282;51.440;6.938;2023-05-06T01:06:44;19.48;;;11.15;;
12435;SDS011;6282;51.440;6.938;2023-05-06T01:09:21;15.68;;;10.30;;
12435;SDS011;6282;51.440;6.938;2023-05-06T01:11:55;15.55;;;9.52;;
12435;SDS011;6282;51.440;6.938;2023-05-06T01:14:31;16.65;;;9.95;;
12435;SDS011;6282;51.440;6.938;2023-05-06T01:17:06;16.08;;;9.57;;
12435;SDS011;6282;51.440;6.938;2023-05-06T01:19:36;14.38;;;9.18;;
12435;SDS011;6282;51.440;6.938;2023-05-06T01:22:07;15.63;;;9.77;;
12435;SDS011;6282;51.440;6.938;2023-05-06T01:24:37;16.15;;;9.65;;
12435;SDS011;6282;51.440;6.938;2023-05-06T01:27:05;14.95;;;8.77;;
12435;SDS011;6282;51.440;6.938;2023-05-06T01:29:33;14.52;;;8.85;;
12435;SDS011;6282;51.440;6.938;2023-05-06T01:32:07;15.35;;;9.60;;
12435;SDS011;6282;51.440;6.938;2023-05-06T01:34:47;14.05;;;9.13;;
12435;SDS011;6282;51.440;6.938;2023-05-06T01:37:22;14.80;;;9.15;;
12435;SDS011;6282;51.440;6.938;2023-05-06T01:39:57;14.80;;;9.55;;
12435;SDS011;6282;51.440;6.938;2023-05-06T01:42:26;14.63;;;9.23;;
12435;SDS011;6282;51.440;6.938;2023-05-06T01:44:54;13.57;;;8.82;;
12435;SDS011;6282;51.440;6.938;2023-05-06T01:47:24;12.68;;;8.60;;
12435;SDS011;6282;51.440;6.938;2023-05-06T01:49:51;15.20;;;8.65;;
12435;SDS011;6282;51.440;6.938;2023-05-06T01:52:19;14.48;;;8.98;;
12435;SDS011;6282;51.440;6.938;2023-05-06T01:54:46;14.07;;;8.52;;
12435;SDS011;6282;51.440;6.938;2023-05-06T01:57:14;12.15;;;7.80;;
12435;SDS011;6282;51.440;6.938;2023-05-06T01:59:41;11.85;;;8.38;;
12435;SDS011;6282;51.440;6.938;2023-05-06T02:02:08;13.40;;;8.70;;
12435;SDS011;6282;51.440;6.938;2023-05-06T02:04:34;12.25;;;8.65;;
12435;SDS011;6282;51.440;6.938;2023-05-06T02:07:01;13.27;;;8.63;;
12435;SDS011;6282;51.440;6.938;2023-05-06T02:09:28;13.82;;;8.32;;
12435;SDS011;6282;51.440;6.938;2023-05-06T02:11:55;14.05;;;8.80;;
12435;SDS011;6282;51.440;6.938;2023-05-06T02:14:23;14.82;;;9.38;;
12435;SDS011;6282;51.440;6.938;2023-05-06T02:16:50;13.40;;;8.98;;
12435;SDS011;6282;51.440;6.938;2023-05-06T02:19:17;13.20;;;8.57;;
12435;SDS011;6282;51.440;6.938;2023-05-06T02:21:44;12.68;;;7.88;;
12435;SDS011;6282;51.440;6.938;2023-05-06T02:24:11;13.82;;;8.57;;
12435;SDS011;6282;51.440;6.938;2023-05-06T02:26:38;12.32;;;7.85;;
12435;SDS011;6282;51.440;6.938;2023-05-06T02:29:04;15.88;;;8.30;;
12435;SDS011;6282;51.440;6.938;2023-05-06T02:31:33;10.40;;;7.28;;
12435;SDS011;6282;51.440;6.938;2023-05-06T02:33:59;13.40;;;7.25;;
12435;SDS011;6282;51.440;6.938;2023-05-06T02:36:26;9.95;;;6.68;;
12435;SDS011;6282;51.440;6.938;2023-05-06T02:38:53;12.85;;;7.82;;
12435;SDS011;6282;51.440;6.938;2023-05-06T02:41:20;11.93;;;7.93;;
12435;SDS011;6282;51.440;6.938;2023-05-06T02:43:47;11.57;;;7.57;;
12435;SDS011;6282;51.440;6.938;2023-05-06T02:46:14;12.88;;;8.02;;
12435;SDS011;6282;51.440;6.938;2023-05-06T02:48:42;13.90;;;8.73;;
12435;SDS011;6282;51.440;6.938;2023-05-06T02:51:09;14.55;;;8.02;;
12435;SDS011;6282;51.440;6.938;2023-05-06T02:53:36;12.68;;;8.02;;
12435;SDS011;6282;51.440;6.938;2023-05-06T02:56:03;11.25;;;7.43;;
12435;SDS011;6282;51.440;6.938;2023-05-06T02:58:30;11.65;;;7.72;;
12435;SDS011;6282;51.440;6.938;2023-05-06T03:00:57;10.88;;;7.18;;
12435;SDS011;6282;51.440;6.938;2023-05-06T03:03:24;12.77;;;8.25;;
12435;SDS011;6282;51.440;6.938;2023-05-06T03:05:52;14.25;;;8.95;;
12435;SDS011;6282;51.440;6.938;2023-05-06T03:08:19;13.77;;;8.90;;
12435;SDS011;6282;51.440;6.938;2023-05-06T03:10:45;11.55;;;8.18;;
12435;SDS011;6282;51.440;6.938;2023-05-06T03:13:12;15.45;;;9.07;;
12435;SDS011;6282;51.440;6.938;2023-05-06T03:15:39;14.15;;;7.97;;
12435;SDS011;6282;51.440;6.938;2023-05-06T03:18:06;13.90;;;8.30;;
12435;SDS011;6282;51.440;6.938;2023-05-06T03:20:33;14.98;;;8.98;;
12435;SDS011;6282;51.440;6.938;2023-05-06T03:23:01;14.45;;;9.18;;
12435;SDS011;6282;51.440;6.938;2023-05-06T03:25:28;12.95;;;8.43;;
12435;SDS011;6282;51.440;6.938;2023-05-06T03:27:55;15.07;;;9.15;;
12435;SDS011;6282;51.440;6.938;2023-05-06T03:30:22;17.20;;;9.70;;
12435;SDS011;6282;51.440;6.938;2023-05-06T03:32:48;12.73;;;8.30;;
12435;SDS011;6282;51.440;6.938;2023-05-06T03:35:15;12.60;;;8.27;;
12435;SDS011;6282;51.440;6.938;2023-05-06T03:37:42;14.93;;;9.00;;
12435;SDS011;6282;51.440;6.938;2023-05-06T03:40:11;16.88;;;9.07;;
12435;SDS011;6282;51.440;6.938;2023-05-06T03:42:38;15.25;;;9.07;;
12435;SDS011;6282;51.440;6.938;2023-05-06T03:45:05;19.55;;;9.68;;
12435;SDS011;6282;51.440;6.938;2023-05-06T03:47:32;15.23;;;9.48;;
12435;SDS011;6282;51.440;6.938;2023-05-06T03:49:59;13.80;;;8.43;;
12435;SDS011;6282;51.440;6.938;2023-05-06T03:52:26;13.60;;;8.48;;
12435;SDS011;6282;51.440;6.938;2023-05-06T03:54:54;16.27;;;9.50;;
12435;SDS011;6282;51.440;6.938;2023-05-06T03:57:22;16.35;;;10.82;;
12435;SDS011;6282;51.440;6.938;2023-05-06T03:59:49;14.85;;;9.30;;
12435;SDS011;6282;51.440;6.938;2023-05-06T04:02:16;19.45;;;10.20;;
12435;SDS011;6282;51.440;6.938;2023-05-06T04:04:43;17.52;;;9.77;;
12435;SDS011;6282;51.440;6.938;2023-05-06T04:07:10;16.95;;;10.15;;
12435;SDS011;6282;51.440;6.938;2023-05-06T04:09:37;18.83;;;11.23;;
12435;SDS011;6282;51.440;6.938;2023-05-06T04:12:03;19.58;;;11.32;;
12435;SDS011;6282;51.440;6.938;2023-05-06T04:14:32;18.33;;;10.93;;
12435;SDS011;6282;51.440;6.938;2023-05-06T04:16:59;19.63;;;11.10;;
12435;SDS011;6282;51.440;6.938;2023-05-06T04:19:25;15.80;;;10.32;;
12435;SDS011;6282;51.440;6.938;2023-05-06T04:21:52;19.83;;;9.88;;
12435;SDS011;6282;51.440;6.938;2023-05-06T04:24:19;17.48;;;10.93;;
12435;SDS011;6282;51.440;6.938;2023-05-06T04:26:47;17.65;;;10.70;;
12435;SDS011;6282;51.440;6.938;2023-05-06T04:29:13;18.02;;;11.75;;
12435;SDS011;6282;51.440;6.938;2023-05-06T04:31:42;20.17;;;12.93;;
12435;SDS011;6282;51.440;6.938;2023-05-06T04:34:08;18.27;;;11.48;;
12435;SDS011;6282;51.440;6.938;2023-05-06T04:36:35;16.88;;;10.98;;
12435;SDS011;6282;51.440;6.938;2023-05-06T04:39:03;16.88;;;10.63;;
12435;SDS011;6282;51.440;6.938;2023-05-06T04:41:32;17.13;;;9.85;;
12435;SDS011;6282;51.440;6.938;2023-05-06T04:43:59;15.98;;;10.23;;
12435;SDS011;6282;51.440;6.938;2023-05-06T04:46:26;18.20;;;10.38;;
12435;SDS011;6282;51.440;6.938;2023-05-06T04:48:54;16.42;;;10.48;;
12435;SDS011;6282;51.440;6.938;2023-05-06T04:51:22;16.63;;;11.50;;
12435;SDS011;6282;51.440;6.938;2023-05-06T04:53:49;18.92;;;12.07;;
12435;SDS011;6282;51.440;6.938;2023-05-06T04:56:16;18.25;;;11.32;;
12435;SDS011;6282;51.440;6.938;2023-05-06T04:58:43;17.75;;;11.25;;
12435;SDS011;6282;51.440;6.938;2023-05-06T05:01:10;19.92;;;11.88;;
12435;SDS011;6282;51.440;6.938;2023-05-06T05:03:37;15.52;;;11.02;;
12435;SDS011;6282;51.440;6.938;2023-05-06T05:06:05;15.10;;;10.40;;
12435;SDS011;6282;51.440;6.938;2023-05-06T05:08:32;18.58;;;11.27;;
12435;SDS011;6282;51.440;6.938;2023-05-06T05:10:59;18.45;;;12.52;;
12435;SDS011;6282;51.440;6.938;2023-05-06T05:13:26;18.98;;;10.82;;
12435;SDS011;6282;51.440;6.938;2023-05-06T05:15:53;19.27;;;11.52;;
12435;SDS011;6282;51.440;6.938;2023-05-06T05:18:20;17.52;;;11.55;;
12435;SDS011;6282;51.440;6.938;2023-05-06T05:20:47;17.58;;;11.00;;
12435;SDS011;6282;51.440;6.938;2023-05-06T05:23:15;16.17;;;11.05;;
12435;SDS011;6282;51.440;6.938;2023-05-06T05:25:42;18.52;;;11.88;;
12435;SDS011;6282;51.440;6.938;2023-05-06T05:28:09;20.10;;;12.88;;
12435;SDS011;6282;51.440;6.938;2023-05-06T05:30:36;15.75;;;11.70;;
12435;SDS011;6282;51.440;6.938;2023-05-06T05:33:03;18.70;;;11.45;;
12435;SDS011;6282;51.440;6.938;2023-05-06T05:35:29;14.88;;;11.27;;
12435;SDS011;6282;51.440;6.938;2023-05-06T05:37:56;16.98;;;11.45;;
12435;SDS011;6282;51.440;6.938;2023-05-06T05:40:25;17.95;;;11.55;;
12435;SDS011;6282;51.440;6.938;2023-05-06T05:42:52;14.20;;;10.32;;
12435;SDS011;6282;51.440;6.938;2023-05-06T05:45:19;15.38;;;10.65;;
12435;SDS011;6282;51.440;6.938;2023-05-06T05:47:46;15.75;;;10.77;;
12435;SDS011;6282;51.440;6.938;2023-05-06T05:50:13;16.85;;;10.30;;
12435;SDS011;6282;51.440;6.938;2023-05-06T05:52:39;15.43;;;10.20;;
12435;SDS011;6282;51.440;6.938;2023-05-06T05:55:06;15.35;;;10.57;;
12435;SDS011;6282;51.440;6.938;2023-05-06T05:57:35;17.02;;;11.35;;
12435;SDS011;6282;51.440;6.938;2023-05-06T06:00:02;15.48;;;10.63;;
12435;SDS011;6282;51.440;6.938;2023-05-06T06:02:30;15.57;;;10.20;;
12435;SDS011;6282;51.440;6.938;2023-05-06T06:04:58;18.60;;;11.60;;
12435;SDS011;6282;51.440;6.938;2023-05-06T06:07:25;18.10;;;11.43;;
12435;SDS011;6282;51.440;6.938;2023-05-06T06:09:52;16.92;;;10.73;;
12435;SDS011;6282;51.440;6.938;2023-05-06T06:12:18;16.27;;;10.75;;
12435;SDS011;6282;51.440;6.938;2023-05-06T06:14:47;16.33;;;11.32;;
12435;SDS011;6282;51.440;6.938;2023-05-06T06:17:14;14.50;;;10.82;;
12435;SDS011;6282;51.440;6.938;2023-05-06T06:19:43;14.38;;;9.80;;
12435;SDS011;6282;51.440;6.938;2023-05-06T06:22:10;16.00;;;10.38;;
12435;SDS011;6282;51.440;6.938;2023-05-06T06:24:37;15.43;;;9.52;;
12435;SDS011;6282;51.440;6.938;2023-05-06T06:27:05;13.15;;;9.30;;
12435;SDS011;6282;51.440;6.938;2023-05-06T06:29:31;13.98;;;8.38;;
12435;SDS011;6282;51.440;6.938;2023-05-06T06:32:00;14.45;;;8.98;;
12435;SDS011;6282;51.440;6.938;2023-05-06T06:34:28;12.40;;;8.93;;
12435;SDS011;6282;51.440;6.938;2023-05-06T06:36:55;12.25;;;9.13;;
12435;SDS011;6282;51.440;6.938;2023-05-06T06:39:21;11.43;;;7.93;;
12435;SDS011;6282;51.440;6.938;2023-05-06T06:41:48;11.23;;;7.82;;
12435;SDS011;6282;51.440;6.938;2023-05-06T06:44:15;10.32;;;7.13;;
12435;SDS011;6282;51.440;6.938;2023-05-06T06:46:42;10.93;;;7.68;;
12435;SDS011;6282;51.440;6.938;2023-05-06T06:49:10;8.27;;;6.82;;
12435;SDS011;6282;51.440;6.938;2023-05-06T06:51:37;8.77;;;6.75;;
12435;SDS011;6282;51.440;6.938;2023-05-06T06:54:04;9.57;;;6.47;;
12435;SDS011;6282;51.440;6.938;2023-05-06T06:56:31;9.85;;;6.60;;
12435;SDS011;6282;51.440;6.938;2023-05-06T06:58:58;8.82;;;6.78;;
12435;SDS011;6282;51.440;6.938;2023-05-06T07:01:24;8.02;;;5.53;;
12435;SDS011;6282;51.440;6.938;2023-05-06T07:03:51;6.47;;;4.95;;
12435;SDS011;6282;51.440;6.938;2023-05-06T07:06:19;4.38;;;3.95;;
12435;SDS011;6282;51.440;6.938;2023-05-06T07:08:46;4.60;;;4.13;;
12435;SDS011;6282;51.440;6.938;2023-05-06T07:11:13;5.35;;;3.97;;
12435;SDS011;6282;51.440;6.938;2023-05-06T07:13:40;4.97;;;4.05;;
12435;SDS011;6282;51.440;6.938;2023-05-06T07:16:07;4.80;;;3.90;;
12435;SDS011;6282;51.440;6.938;2023-05-06T07:18:34;3.13;;;2.65;;
12435;SDS011;6282;51.440;6.938;2023-05-06T07:21:01;5.30;;;3.88;;
12435;SDS011;6282;51.440;6.938;2023-05-06T07:23:29;4.25;;;3.20;;
12435;SDS011;6282;51.440;6.938;2023-05-06T07:25:56;5.28;;;3.78;;
12435;SDS011;6282;51.440;6.938;2023-05-06T07:28:23;4.03;;;3.63;;
12435;SDS011;6282;51.440;6.938;2023-05-06T07:30:51;4.13;;;3.38;;
12435;SDS011;6282;51.440;6.938;2023-05-06T07:33:18;3.65;;;3.20;;
12435;SDS011;6282;51.440;6.938;2023-05-06T07:35:45;4.10;;;3.00;;
12435;SDS011;6282;51.440;6.938;2023-05-06T07:38:12;2.67;;;2.22;;
12435;SDS011;6282;51.440;6.938;2023-05-06T07:40:40;3.25;;;2.90;;
12435;SDS011;6282;51.440;6.938;2023-05-06T07:43:07;3.42;;;2.60;;
12435;SDS011;6282;51.440;6.938;2023-05-06T07:45:34;3.00;;;2.70;;
12435;SDS011;6282;51.440;6.938;2023-05-06T07:48:01;2.75;;;2.55;;
12435;SDS011;6282;51.440;6.938;2023-05-06T07:50:28;2.42;;;2.25;;
12435;SDS011;6282;51.440;6.938;2023-05-06T07:52:55;2.65;;;2.45;;
12435;SDS011;6282;51.440;6.938;2023-05-06T07:55:22;2.50;;;2.30;;
12435;SDS011;6282;51.440;6.938;2023-05-06T07:57:50;2.90;;;2.70;;
12435;SDS011;6282;51.440;6.938;2023-05-06T08:00:17;2.60;;;2.40;;
12435;SDS011;6282;51.440;6.938;2023-05-06T08:02:44;2.83;;;2.60;;
12435;SDS011;6282;51.440;6.938;2023-05-06T08:05:12;2.60;;;2.33;;
12435;SDS011;6282;51.440;6.938;2023-05-06T08:07:39;2.75;;;2.55;;
12435;SDS011;6282;51.440;6.938;2023-05-06T08:10:07;3.00;;;2.70;;
12435;SDS011;6282;51.440;6.938;2023-05-06T08:12:35;3.15;;;2.85;;
12435;SDS011;6282;51.440;6.938;2023-05-06T08:15:03;3.17;;;2.88;;
12435;SDS011;6282;51.440;6.938;2023-05-06T08:17:31;4.65;;;2.78;;
12435;SDS011;6282;51.440;6.938;2023-05-06T08:19:58;3.20;;;2.90;;
12435;SDS011;6282;51.440;6.938;2023-05-06T08:22:24;3.45;;;2.75;;
12435;SDS011;6282;51.440;6.938;2023-05-06T08:24:51;2.60;;;2.40;;
12435;SDS011;6282;51.440;6.938;2023-05-06T08:27:18;2.97;;;2.70;;
12435;SDS011;6282;51.440;6.938;2023-05-06T08:29:45;3.83;;;2.80;;
12435;SDS011;6282;51.440;6.938;2023-05-06T08:32:13;2.33;;;2.13;;
12435;SDS011;6282;51.440;6.938;2023-05-06T08:34:40;3.22;;;2.70;;
12435;SDS011;6282;51.440;6.938;2023-05-06T08:37:07;2.53;;;2.33;;
12435;SDS011;6282;51.440;6.938;2023-05-06T08:39:34;2.45;;;2.25;;
12435;SDS011;6282;51.440;6.938;2023-05-06T08:42:01;2.47;;;2.28;;
12435;SDS011;6282;51.440;6.938;2023-05-06T08:44:28;3.05;;;2.30;;
12435;SDS011;6282;51.440;6.938;2023-05-06T08:46:55;2.25;;;2.05;;
12435;SDS011;6282;51.440;6.938;2023-05-06T08:49:24;2.00;;;1.90;;
12435;SDS011;6282;51.440;6.938;2023-05-06T08:51:51;1.98;;;1.88;;
12435;SDS011;6282;51.440;6.938;2023-05-06T08:54:17;1.42;;;1.33;;
12435;SDS011;6282;51.440;6.938;2023-05-06T08:56:46;2.70;;;1.40;;
12435;SDS011;6282;51.440;6.938;2023-05-06T08:59:16;1.70;;;1.40;;
12435;SDS011;6282;51.440;6.938;2023-05-06T09:01:45;1.40;;;1.30;;
12435;SDS011;6282;51.440;6.938;2023-05-06T09:04:13;2.53;;;1.55;;
12435;SDS011;6282;51.440;6.938;2023-05-06T09:06:44;0.90;;;0.90;;
12435;SDS011;6282;51.440;6.938;2023-05-06T09:09:11;1.35;;;1.20;;
12435;SDS011;6282;51.440;6.938;2023-05-06T09:11:39;1.65;;;1.40;;
12435;SDS011;6282;51.440;6.938;2023-05-06T09:14:06;1.70;;;1.38;;
12435;SDS011;6282;51.440;6.938;2023-05-06T09:16:35;1.55;;;1.15;;
12435;SDS011;6282;51.440;6.938;2023-05-06T09:19:03;2.90;;;1.30;;
12435;SDS011;6282;51.440;6.938;2023-05-06T09:21:34;1.80;;;1.30;;
12435;SDS011;6282;51.440;6.938;2023-05-06T09:24:04;1.08;;;0.98;;
12435;SDS011;6282;51.440;6.938;2023-05-06T09:26:32;0.70;;;0.70;;
12435;SDS011;6282;51.440;6.938;2023-05-06T09:29:00;2.58;;;1.20;;
12435;SDS011;6282;51.440;6.938;2023-05-06T09:31:28;0.90;;;0.90;;
12435;SDS011;6282;51.440;6.938;2023-05-06T09:33:56;0.90;;;0.90;;
12435;SDS011;6282;51.440;6.938;2023-05-06T09:36:26;1.60;;;0.80;;
12435;SDS011;6282;51.440;6.938;2023-05-06T09:38:53;1.98;;;1.00;;
12435;SDS011;6282;51.440;6.938;2023-05-06T09:41:23;0.82;;;0.82;;
12435;SDS011;6282;51.440;6.938;2023-05-06T09:43:50;1.02;;;0.93;;
12435;SDS011;6282;51.440;6.938;2023-05-06T09:46:18;0.70;;;0.70;;
12435;SDS011;6282;51.440;6.938;2023-05-06T09:48:48;1.52;;;0.95;;
12435;SDS011;6282;51.440;6.938;2023-05-06T09:51:16;1.10;;;1.10;;
12435;SDS011;6282;51.440;6.938;2023-05-06T09:53:43;1.58;;;1.17;;
12435;SDS011;6282;51.440;6.938;2023-05-06T09:56:13;1.27;;;0.93;;
12435;SDS011;6282;51.440;6.938;2023-05-06T09:58:42;1.00;;;1.00;;
12435;SDS011;6282;51.440;6.938;2023-05-06T10:01:10;0.90;;;0.90;;
12435;SDS011;6282;51.440;6.938;2023-05-06T10:03:38;1.67;;;1.17;;
12435;SDS011;6282;51.440;6.938;2023-05-06T10:06:07;1.08;;;0.98;;
12435;SDS011;6282;51.440;6.938;2023-05-06T10:08:35;1.10;;;1.02;;
12435;SDS011;6282;51.440;6.938;2023-05-06T10:11:05;1.05;;;0.80;;
12435;SDS011;6282;51.440;6.938;2023-05-06T10:13:32;1.30;;;1.15;;
12435;SDS011;6282;51.440;6.938;2023-05-06T10:16:03;0.70;;;0.70;;
12435;SDS011;6282;51.440;6.938;2023-05-06T10:18:31;1.13;;;0.80;;
12435;SDS011;6282;51.440;6.938;2023-05-06T10:21:00;1.45;;;0.95;;
12435;SDS011;6282;51.440;6.938;2023-05-06T10:23:30;1.58;;;1.17;;
12435;SDS011;6282;51.440;6.938;2023-05-06T10:26:04;0.90;;;0.90;;
12435;SDS011;6282;51.440;6.938;2023-05-06T10:28:33;1.10;;;0.82;;
12435;SDS011;6282;51.440;6.938;2023-05-06T10:31:07;0.50;;;0.50;;
12435;SDS011;6282;51.440;6.938;2023-05-06T10:33:36;0.50;;;0.50;;
12435;SDS011;6282;51.440;6.938;2023-05-06T10:36:06;0.93;;;0.80;;
12435;SDS011;6282;51.440;6.938;2023-05-06T10:38:40;0.90;;;0.90;;
12435;SDS011;6282;51.440;6.938;2023-05-06T10:41:09;2.08;;;1.05;;
12435;SDS011;6282;51.440;6.938;2023-05-06T10:43:38;0.95;;;0.70;;
12435;SDS011;6282;51.440;6.938;2023-05-06T10:46:08;0.60;;;0.60;;
12435;SDS011;6282;51.440;6.938;2023-05-06T10:48:36;0.50;;;0.50;;
12435;SDS011;6282;51.440;6.938;2023-05-06T10:51:19;1.02;;;0.70;;
12435;SDS011;6282;51.440;6.938;2023-05-06T10:53:57;0.63;;;0.63;;
12435;SDS011;6282;51.440;6.938;2023-05-06T10:56:30;0.90;;;0.90;;
12435;SDS011;6282;51.440;6.938;2023-05-06T10:59:00;1.70;;;0.77;;
12435;SDS011;6282;51.440;6.938;2023-05-06T11:01:33;0.70;;;0.70;;
12435;SDS011;6282;51.440;6.938;2023-05-06T11:04:04;0.65;;;0.60;;
12435;SDS011;6282;51.440;6.938;2023-05-06T11:06:34;0.63;;;0.60;;
12435;SDS011;6282;51.440;6.938;2023-05-06T11:09:02;0.88;;;0.52;;
12435;SDS011;6282;51.440;6.938;2023-05-06T11:11:45;1.10;;;0.70;;
12435;SDS011;6282;51.440;6.938;2023-05-06T11:14:28;1.00;;;0.63;;
12435;SDS011;6282;51.440;6.938;2023-05-06T11:16:58;0.77;;;0.77;;
12435;SDS011;6282;51.440;6.938;2023-05-06T11:19:25;0.52;;;0.52;;
12435;SDS011;6282;51.440;6.938;2023-05-06T11:21:54;1.10;;;0.70;;
12435;SDS011;6282;51.440;6.938;2023-05-06T11:24:23;0.65;;;0.65;;
12435;SDS011;6282;51.440;6.938;2023-05-06T11:26:51;1.58;;;1.00;;
12435;SDS011;6282;51.440;6.938;2023-05-06T11:29:19;1.23;;;0.70;;
12435;SDS011;6282;51.440;6.938;2023-05-06T11:31:46;0.70;;;0.70;;
12435;SDS011;6282;51.440;6.938;2023-05-06T11:34:19;1.27;;;0.90;;
12435;SDS011;6282;51.440;6.938;2023-05-06T11:36:49;0.80;;;0.80;;
12435;SDS011;6282;51.440;6.938;2023-05-06T11:39:19;1.67;;;0.90;;
12435;SDS011;6282;51.440;6.938;2023-05-06T11:41:46;1.75;;;1.00;;
12435;SDS011;6282;51.440;6.938;2023-05-06T11:44:22;0.60;;;0.60;;
12435;SDS011;6282;51.440;6.938;2023-05-06T11:46:50;0.80;;;0.80;;
12435;SDS011;6282;51.440;6.938;2023-05-06T11:49:22;0.60;;;0.60;;
12435;SDS011;6282;51.440;6.938;2023-05-06T11:51:50;0.98;;;0.88;;
12435;SDS011;6282;51.440;6.938;2023-05-06T11:54:17;0.70;;;0.70;;
12435;SDS011;6282;51.440;6.938;2023-05-06T11:56:47;0.70;;;0.70;;
12435;SDS011;6282;51.440;6.938;2023-05-06T11:59:16;0.77;;;0.70;;
12435;SDS011;6282;51.440;6.938;2023-05-06T12:01:52;1.58;;;0.82;;
12435;SDS011;6282;51.440;6.938;2023-05-06T12:04:19;0.68;;;0.68;;
12435;SDS011;6282;51.440;6.938;2023-05-06T12:06:47;0.47;;;0.43;;
12435;SDS011;6282;51.440;6.938;2023-05-06T12:09:14;0.90;;;0.65;;
12435;SDS011;6282;51.440;6.938;2023-05-06T12:11:41;0.75;;;0.60;;
12435;SDS011;6282;51.440;6.938;2023-05-06T12:14:09;2.28;;;1.00;;
12435;SDS011;6282;51.440;6.938;2023-05-06T12:16:38;2.15;;;1.02;;
12435;SDS011;6282;51.440;6.938;2023-05-06T12:19:14;1.65;;;0.90;;
12435;SDS011;6282;51.440;6.938;2023-05-06T12:21:41;1.48;;;0.60;;
12435;SDS011;6282;51.440;6.938;2023-05-06T12:24:10;0.60;;;0.60;;
12435;SDS011;6282;51.440;6.938;2023-05-06T12:26:40;0.73;;;0.70;;
12435;SDS011;6282;51.440;6.938;2023-05-06T12:29:12;0.60;;;0.60;;
12435;SDS011;6282;51.440;6.938;2023-05-06T12:31:42;4.68;;;1.70;;
12435;SDS011;6282;51.440;6.938;2023-05-06T12:34:11;2.47;;;1.10;;
12435;SDS011;6282;51.440;6.938;2023-05-06T12:36:38;0.70;;;0.70;;
12435;SDS011;6282;51.440;6.938;2023-05-06T12:39:06;1.20;;;0.93;;
12435;SDS011;6282;51.440;6.938;2023-05-06T12:41:35;1.58;;;0.80;;
12435;SDS011;6282;51.440;6.938;2023-05-06T12:46:55;1.95;;;0.68;;
12435;SDS011;6282;51.440;6.938;2023-05-06T12:49:21;0.85;;;0.80;;
12435;SDS011;6282;51.440;6.938;2023-05-06T12:52:03;1.02;;;0.93;;
12435;SDS011;6282;51.440;6.938;2023-05-06T12:54:30;1.10;;;1.00;;
12435;SDS011;6282;51.440;6.938;2023-05-06T12:56:59;2.35;;;0.90;;
12435;SDS011;6282;51.440;6.938;2023-05-06T12:59:26;0.80;;;0.80;;
12435;SDS011;6282;51.440;6.938;2023-05-06T13:01:53;1.25;;;0.70;;
12435;SDS011;6282;51.440;6.938;2023-05-06T13:04:19;1.23;;;0.77;;
12435;SDS011;6282;51.440;6.938;2023-05-06T13:06:46;0.70;;;0.70;;
12435;SDS011;6282;51.440;6.938;2023-05-06T13:09:14;1.25;;;0.80;;
12435;SDS011;6282;51.440;6.938;2023-05-06T13:11:41;0.77;;;0.77;;
12435;SDS011;6282;51.440;6.938;2023-05-06T13:14:09;1.00;;;0.90;;
12435;SDS011;6282;51.440;6.938;2023-05-06T13:16:36;1.20;;;0.77;;
12435;SDS011;6282;51.440;6.938;2023-05-06T13:19:03;1.33;;;0.82;;
12435;SDS011;6282;51.440;6.938;2023-05-06T13:21:30;1.23;;;0.70;;
12435;SDS011;6282;51.440;6.938;2023-05-06T13:23:57;1.33;;;0.75;;
12435;SDS011;6282;51.440;6.938;2023-05-06T13:26:24;1.02;;;0.93;;
12435;SDS011;6282;51.440;6.938;2023-05-06T13:28:50;0.70;;;0.70;;
12435;SDS011;6282;51.440;6.938;2023-05-06T13:31:20;1.25;;;0.82;;
12435;SDS011;6282;51.440;6.938;2023-05-06T13:33:47;3.63;;;1.08;;
12435;SDS011;6282;51.440;6.938;2023-05-06T13:36:14;1.73;;;0.90;;
12435;SDS011;6282;51.440;6.938;2023-05-06T13:38:41;0.75;;;0.75;;
12435;SDS011;6282;51.440;6.938;2023-05-06T13:41:07;0.70;;;0.70;;
12435;SDS011;6282;51.440;6.938;2023-05-06T13:43:34;0.77;;;0.70;;
12435;SDS011;6282;51.440;6.938;2023-05-06T13:46:01;1.65;;;0.90;;
12435;SDS011;6282;51.440;6.938;2023-05-06T13:48:29;1.75;;;1.55;;
12435;SDS011;6282;51.440;6.938;2023-05-06T13:50:56;1.77;;;1.27;;
12435;SDS011;6282;51.440;6.938;2023-05-06T13:53:23;0.70;;;0.70;;
12435;SDS011;6282;51.440;6.938;2023-05-06T13:55:50;1.15;;;0.80;;
12435;SDS011;6282;51.440;6.938;2023-05-06T13:58:17;0.98;;;0.93;;
12435;SDS011;6282;51.440;6.938;2023-05-06T14:00:44;0.70;;;0.70;;
12435;SDS011;6282;51.440;6.938;2023-05-06T14:03:10;0.90;;;0.90;;
12435;SDS011;6282;51.440;6.938;2023-05-06T14:05:39;0.85;;;0.85;;
12435;SDS011;6282;51.440;6.938;2023-05-06T14:08:05;1.55;;;1.00;;
12435;SDS011;6282;51.440;6.938;2023-05-06T14:10:33;1.33;;;0.80;;
12435;SDS011;6282;51.440;6.938;2023-05-06T14:12:59;1.08;;;0.82;;
12435;SDS011;6282;51.440;6.938;2023-05-06T14:15:26;2.90;;;0.80;;
12435;SDS011;6282;51.440;6.938;2023-05-06T14:17:53;0.73;;;0.73;;
12435;SDS011;6282;51.440;6.938;2023-05-06T14:20:20;1.27;;;0.95;;
12435;SDS011;6282;51.440;6.938;2023-05-06T14:22:48;0.57;;;0.57;;
12435;SDS011;6282;51.440;6.938;2023-05-06T14:25:15;1.13;;;0.90;;
12435;SDS011;6282;51.440;6.938;2023-05-06T14:27:41;1.00;;;1.00;;
12435;SDS011;6282;51.440;6.938;2023-05-06T14:30:09;0.82;;;0.80;;
12435;SDS011;6282;51.440;6.938;2023-05-06T14:32:37;1.23;;;0.75;;
12435;SDS011;6282;51.440;6.938;2023-05-06T14:35:04;1.10;;;0.90;;
12435;SDS011;6282;51.440;6.938;2023-05-06T14:37:31;0.50;;;0.50;;
12435;SDS011;6282;51.440;6.938;2023-05-06T14:39:59;1.20;;;0.68;;
12435;SDS011;6282;51.440;6.938;2023-05-06T14:42:28;1.00;;;0.70;;
12435;SDS011;6282;51.440;6.938;2023-05-06T14:44:55;0.80;;;0.80;;
12435;SDS011;6282;51.440;6.938;2023-05-06T14:47:22;0.82;;;0.70;;
12435;SDS011;6282;51.440;6.938;2023-05-06T14:49:49;0.57;;;0.57;;
12435;SDS011;6282;51.440;6.938;2023-05-06T14:52:16;1.02;;;0.80;;
12435;SDS011;6282;51.440;6.938;2023-05-06T14:54:43;1.17;;;0.80;;
12435;SDS011;6282;51.440;6.938;2023-05-06T14:57:11;0.75;;;0.70;;
12435;SDS011;6282;51.440;6.938;2023-05-06T14:59:37;2.47;;;0.77;;